sensor_id;sensor_type;location;lat;lon;timestamp;pressure;altitude;pressure_sealevel;temperature;humidity
69749;BME280;57019;52.354;6.584;2022-11-20T00:00:48;101347.44;;;18.44;41.45
69749;BME280;57019;52.354;6.584;2022-11-20T00:03:13;101350.50;;;18.39;41.30
69749;BME280;57019;52.354;6.584;2022-11-20T00:05:38;101360.97;;;18.39;41.41
69749;BME280;57019;52.354;6.584;2022-11-20T00:08:04;101353.97;;;18.40;41.24
69749;BME280;57019;52.354;6.584;2022-11-20T00:10:30;101347.09;;;18.39;41.43
69749;BME280;57019;52.354;6.584;2022-11-20T00:12:55;101340.38;;;18.36;41.43
69749;BME280;57019;52.354;6.584;2022-11-20T00:15:22;101342.34;;;18.34;41.16
69749;BME280;57019;52.354;6.584;2022-11-20T00:17:47;101339.06;;;18.32;41.28
69749;BME280;57019;52.354;6.584;2022-11-20T00:20:13;101342.78;;;18.29;41.29
69749;BME280;57019;52.354;6.584;2022-11-20T00:22:38;101334.31;;;18.27;41.34
69749;BME280;57019;52.354;6.584;2022-11-20T00:25:04;101323.84;;;18.27;40.93
69749;BME280;57019;52.354;6.584;2022-11-20T00:27:29;101320.41;;;18.27;41.11
69749;BME280;57019;52.354;6.584;2022-11-20T00:29:55;101321.25;;;18.27;41.08
69749;BME280;57019;52.354;6.584;2022-11-20T00:32:20;101325.94;;;18.24;41.32
69749;BME280;57019;52.354;6.584;2022-11-20T00:34:45;101327.59;;;18.25;41.08
69749;BME280;57019;52.354;6.584;2022-11-20T00:37:11;101335.88;;;18.20;40.99
69749;BME280;57019;52.354;6.584;2022-11-20T00:39:36;101328.19;;;18.19;40.91
69749;BME280;57019;52.354;6.584;2022-11-20T00:42:01;101324.94;;;18.17;41.01
69749;BME280;57019;52.354;6.584;2022-11-20T00:44:27;101325.75;;;18.17;40.86
69749;BME280;57019;52.354;6.584;2022-11-20T00:46:52;101318.06;;;18.16;41.02
69749;BME280;57019;52.354;6.584;2022-11-20T00:49:17;101315.78;;;18.12;40.92
69749;BME280;57019;52.354;6.584;2022-11-20T00:51:43;101316.09;;;18.09;41.01
69749;BME280;57019;52.354;6.584;2022-11-20T00:54:09;101305.66;;;18.09;40.92
69749;BME280;57019;52.354;6.584;2022-11-20T00:56:35;101304.66;;;18.10;41.00
69749;BME280;57019;52.354;6.584;2022-11-20T00:59:00;101297.28;;;18.06;40.99
69749;BME280;57019;52.354;6.584;2022-11-20T01:01:26;101290.94;;;18.08;40.80
69749;BME280;57019;52.354;6.584;2022-11-20T01:03:56;101288.63;;;18.05;40.87
69749;BME280;57019;52.354;6.584;2022-11-20T01:06:28;101289.44;;;18.06;40.84
69749;BME280;57019;52.354;6.584;2022-11-20T01:08:56;101286.03;;;18.05;40.80
69749;BME280;57019;52.354;6.584;2022-11-20T01:11:27;101285.34;;;18.03;40.72
69749;BME280;57019;52.354;6.584;2022-11-20T01:13:55;101292.53;;;18.01;40.95
69749;BME280;57019;52.354;6.584;2022-11-20T01:16:27;101290.38;;;17.96;40.86
69749;BME280;57019;52.354;6.584;2022-11-20T01:18:55;101287.94;;;17.95;40.76
69749;BME280;57019;52.354;6.584;2022-11-20T01:21:27;101286.28;;;17.94;40.66
69749;BME280;57019;52.354;6.584;2022-11-20T01:23:53;101290.53;;;17.95;40.72
69749;BME280;57019;52.354;6.584;2022-11-20T01:26:41;101290.03;;;17.91;40.67
69749;BME280;57019;52.354;6.584;2022-11-20T01:29:06;101285.63;;;17.92;40.74
69749;BME280;57019;52.354;6.584;2022-11-20T01:31:34;101285.63;;;17.92;40.65
69749;BME280;57019;52.354;6.584;2022-11-20T01:34:04;101283.03;;;17.92;40.56
69749;BME280;57019;52.354;6.584;2022-11-20T01:36:31;101289.50;;;17.88;40.67
69749;BME280;57019;52.354;6.584;2022-11-20T01:38:59;101281.66;;;17.88;40.53
69749;BME280;57019;52.354;6.584;2022-11-20T01:41:26;101289.34;;;17.89;40.45
69749;BME280;57019;52.354;6.584;2022-11-20T01:44:12;101288.53;;;17.89;40.44
69749;BME280;57019;52.354;6.584;2022-11-20T01:46:42;101279.38;;;17.85;40.42
69749;BME280;57019;52.354;6.584;2022-11-20T01:49:20;101275.75;;;17.86;40.58
69749;BME280;57019;52.354;6.584;2022-11-20T01:51:52;101277.41;;;17.87;40.39
69749;BME280;57019;52.354;6.584;2022-11-20T01:54:23;101289.31;;;17.81;40.39
69749;BME280;57019;52.354;6.584;2022-11-20T01:56:51;101288.34;;;17.82;40.28
69749;BME280;57019;52.354;6.584;2022-11-20T01:59:20;101289.31;;;17.81;40.29
69749;BME280;57019;52.354;6.584;2022-11-20T02:01:47;101281.63;;;17.79;40.25
69749;BME280;57019;52.354;6.584;2022-11-20T02:04:13;101279.97;;;17.78;40.25
69749;BME280;57019;52.354;6.584;2022-11-20T02:06:49;101283.56;;;17.77;40.35
69749;BME280;57019;52.354;6.584;2022-11-20T02:09:16;101275.06;;;17.75;40.37
69749;BME280;57019;52.354;6.584;2022-11-20T02:11:41;101277.00;;;17.73;40.33
69749;BME280;57019;52.354;6.584;2022-11-20T02:14:07;101284.19;;;17.71;40.37
69749;BME280;57019;52.354;6.584;2022-11-20T02:16:38;101278.75;;;17.64;40.46
69749;BME280;57019;52.354;6.584;2022-11-20T02:19:09;101275.22;;;17.74;40.24
69749;BME280;57019;52.354;6.584;2022-11-20T02:21:46;101262.63;;;17.69;40.20
69749;BME280;57019;52.354;6.584;2022-11-20T02:24:15;101275.66;;;17.69;40.14
69749;BME280;57019;52.354;6.584;2022-11-20T02:27:08;101265.38;;;17.68;40.22
69749;BME280;57019;52.354;6.584;2022-11-20T02:32:23;101263.91;;;17.65;40.31
69749;BME280;57019;52.354;6.584;2022-11-20T02:34:49;101266.03;;;17.61;40.24
69749;BME280;57019;52.354;6.584;2022-11-20T02:37:15;101255.72;;;17.60;40.27
69749;BME280;57019;52.354;6.584;2022-11-20T02:39:41;101253.78;;;17.62;40.19
69749;BME280;57019;52.354;6.584;2022-11-20T02:42:07;101248.03;;;17.58;40.09
69749;BME280;57019;52.354;6.584;2022-11-20T02:44:32;101254.09;;;17.59;40.11
69749;BME280;57019;52.354;6.584;2022-11-20T02:46:58;101245.56;;;17.57;40.19
69749;BME280;57019;52.354;6.584;2022-11-20T02:49:24;101247.22;;;17.58;40.10
69749;BME280;57019;52.354;6.584;2022-11-20T02:51:50;101247.53;;;17.55;40.10
69749;BME280;57019;52.354;6.584;2022-11-20T02:54:15;101239.34;;;17.50;40.27
69749;BME280;57019;52.354;6.584;2022-11-20T02:56:41;101238.22;;;17.52;40.08
69749;BME280;57019;52.354;6.584;2022-11-20T02:59:07;101245.38;;;17.50;39.94
69749;BME280;57019;52.354;6.584;2022-11-20T03:01:33;101228.56;;;17.53;40.00
69749;BME280;57019;52.354;6.584;2022-11-20T03:03:58;101228.91;;;17.50;39.98
69749;BME280;57019;52.354;6.584;2022-11-20T03:06:24;101234.44;;;17.46;39.99
69749;BME280;57019;52.354;6.584;2022-11-20T03:08:49;101234.44;;;17.46;40.09
69749;BME280;57019;52.354;6.584;2022-11-20T03:11:14;101227.25;;;17.49;39.78
69749;BME280;57019;52.354;6.584;2022-11-20T03:13:41;101229.22;;;17.46;40.16
69749;BME280;57019;52.354;6.584;2022-11-20T03:16:14;101235.72;;;17.42;39.86
69749;BME280;57019;52.354;6.584;2022-11-20T03:18:41;101240.94;;;17.42;39.95
69749;BME280;57019;52.354;6.584;2022-11-20T03:21:07;101241.91;;;17.41;39.94
69749;BME280;57019;52.354;6.584;2022-11-20T03:23:36;101242.22;;;17.38;39.99
69749;BME280;57019;52.354;6.584;2022-11-20T03:26:20;101237.00;;;17.38;39.94
69749;BME280;57019;52.354;6.584;2022-11-20T03:28:54;101243.50;;;17.34;39.94
69749;BME280;57019;52.354;6.584;2022-11-20T03:31:28;101239.91;;;17.35;39.92
69749;BME280;57019;52.354;6.584;2022-11-20T03:33:56;101232.75;;;17.37;39.83
69749;BME280;57019;52.354;6.584;2022-11-20T03:36:21;101233.41;;;17.39;39.95
69749;BME280;57019;52.354;6.584;2022-11-20T03:38:47;101235.66;;;17.34;39.92
69749;BME280;57019;52.354;6.584;2022-11-20T03:41:17;101232.38;;;17.32;39.83
69749;BME280;57019;52.354;6.584;2022-11-20T03:43:50;101230.44;;;17.34;39.80
69749;BME280;57019;52.354;6.584;2022-11-20T03:46:16;101225.81;;;17.28;39.87
69749;BME280;57019;52.354;6.584;2022-11-20T03:48:41;101221.44;;;17.28;39.84
69749;BME280;57019;52.354;6.584;2022-11-20T03:53:37;101229.41;;;17.27;39.85
69749;BME280;57019;52.354;6.584;2022-11-20T03:56:03;101223.53;;;17.25;39.73
69749;BME280;57019;52.354;6.584;2022-11-20T03:58:28;101226.44;;;17.22;39.94
69749;BME280;57019;52.354;6.584;2022-11-20T04:00:54;101224.47;;;17.24;39.82
69749;BME280;57019;52.354;6.584;2022-11-20T04:03:19;101205.56;;;17.22;39.90
69749;BME280;57019;52.354;6.584;2022-11-20T04:05:44;101204.59;;;17.23;39.81
69749;BME280;57019;52.354;6.584;2022-11-20T04:08:10;101204.09;;;17.19;39.74
69749;BME280;57019;52.354;6.584;2022-11-20T04:10:35;101205.88;;;17.19;39.81
69749;BME280;57019;52.354;6.584;2022-11-20T04:13:00;101200.94;;;17.16;39.81
69749;BME280;57019;52.354;6.584;2022-11-20T04:15:26;101192.47;;;17.13;39.70
69749;BME280;57019;52.354;6.584;2022-11-20T04:17:53;101186.94;;;17.17;39.65
69749;BME280;57019;52.354;6.584;2022-11-20T04:20:19;101189.22;;;17.20;39.63
69749;BME280;57019;52.354;6.584;2022-11-20T04:22:44;101192.00;;;17.18;39.61
69749;BME280;57019;52.354;6.584;2022-11-20T04:25:10;101185.28;;;17.16;39.69
69749;BME280;57019;52.354;6.584;2022-11-20T04:27:35;101182.69;;;17.16;39.38
69749;BME280;57019;52.354;6.584;2022-11-20T04:30:01;101177.63;;;17.14;39.60
69749;BME280;57019;52.354;6.584;2022-11-20T04:32:26;101178.09;;;17.09;39.57
69749;BME280;57019;52.354;6.584;2022-11-20T04:34:52;101180.06;;;17.16;39.61
69749;BME280;57019;52.354;6.584;2022-11-20T04:37:18;101179.09;;;17.17;39.55
69749;BME280;57019;52.354;6.584;2022-11-20T04:39:44;101178.31;;;17.16;39.50
69749;BME280;57019;52.354;6.584;2022-11-20T04:42:10;101182.84;;;17.14;39.50
69749;BME280;57019;52.354;6.584;2022-11-20T04:44:54;101178.16;;;17.18;39.51
69749;BME280;57019;52.354;6.584;2022-11-20T04:47:19;101173.09;;;17.16;39.26
69749;BME280;57019;52.354;6.584;2022-11-20T04:49:45;101185.00;;;17.19;39.33
69749;BME280;57019;52.354;6.584;2022-11-20T04:52:10;101179.56;;;17.12;39.00
69749;BME280;57019;52.354;6.584;2022-11-20T04:54:35;101178.47;;;17.15;39.22
69749;BME280;57019;52.354;6.584;2022-11-20T04:57:01;101173.25;;;17.15;39.22
69749;BME280;57019;52.354;6.584;2022-11-20T04:59:26;101175.16;;;17.12;39.22
69749;BME280;57019;52.354;6.584;2022-11-20T05:01:51;101179.06;;;17.08;39.07
69749;BME280;57019;52.354;6.584;2022-11-20T05:04:17;101173.84;;;17.08;39.21
69749;BME280;57019;52.354;6.584;2022-11-20T05:06:42;101169.25;;;17.02;39.31
69749;BME280;57019;52.354;6.584;2022-11-20T05:09:07;101169.38;;;17.01;39.34
69749;BME280;57019;52.354;6.584;2022-11-20T05:11:33;101168.94;;;17.05;39.31
69749;BME280;57019;52.354;6.584;2022-11-20T05:13:59;101169.75;;;17.06;39.22
69749;BME280;57019;52.354;6.584;2022-11-20T05:16:25;101169.13;;;17.12;38.99
69749;BME280;57019;52.354;6.584;2022-11-20T05:18:52;101171.22;;;17.08;38.98
69749;BME280;57019;52.354;6.584;2022-11-20T05:21:18;101165.47;;;17.05;39.04
69749;BME280;57019;52.354;6.584;2022-11-20T05:23:44;101168.94;;;17.05;39.03
69749;BME280;57019;52.354;6.584;2022-11-20T05:26:18;101154.91;;;17.06;39.00
69749;BME280;57019;52.354;6.584;2022-11-20T05:28:44;101158.50;;;17.05;38.94
69749;BME280;57019;52.354;6.584;2022-11-20T05:31:28;101147.69;;;17.00;39.12
69749;BME280;57019;52.354;6.584;2022-11-20T05:33:55;101143.75;;;16.96;39.15
69749;BME280;57019;52.354;6.584;2022-11-20T05:36:21;101147.31;;;16.95;39.06
69749;BME280;57019;52.354;6.584;2022-11-20T05:38:46;101151.56;;;16.96;39.04
69749;BME280;57019;52.354;6.584;2022-11-20T05:41:13;101145.72;;;16.94;39.00
69749;BME280;57019;52.354;6.584;2022-11-20T05:43:41;101144.06;;;16.93;39.03
69749;BME280;57019;52.354;6.584;2022-11-20T05:46:10;101137.53;;;16.89;39.03
69749;BME280;57019;52.354;6.584;2022-11-20T05:48:37;101149.59;;;16.90;39.01
69749;BME280;57019;52.354;6.584;2022-11-20T05:51:04;101155.91;;;16.87;39.06
69749;BME280;57019;52.354;6.584;2022-11-20T05:53:31;101146.44;;;16.86;38.97
69749;BME280;57019;52.354;6.584;2022-11-20T05:56:05;101156.72;;;16.88;38.85
69749;BME280;57019;52.354;6.584;2022-11-20T05:58:32;101163.88;;;16.86;38.85
69749;BME280;57019;52.354;6.584;2022-11-20T06:03:44;101171.03;;;16.84;39.01
69749;BME280;57019;52.354;6.584;2022-11-20T06:06:14;101159.25;;;16.79;39.01
69749;BME280;57019;52.354;6.584;2022-11-20T06:08:40;101160.38;;;16.77;38.97
69749;BME280;57019;52.354;6.584;2022-11-20T06:11:07;101153.22;;;16.79;39.00
69749;BME280;57019;52.354;6.584;2022-11-20T06:13:34;101152.41;;;16.78;38.90
69749;BME280;57019;52.354;6.584;2022-11-20T06:15:59;101157.41;;;16.72;38.96
69749;BME280;57019;52.354;6.584;2022-11-20T06:18:27;101154.66;;;16.73;38.95
69749;BME280;57019;52.354;6.584;2022-11-20T06:21:05;101152.72;;;16.75;38.99
69749;BME280;57019;52.354;6.584;2022-11-20T06:23:32;101153.97;;;16.71;38.87
69749;BME280;57019;52.354;6.584;2022-11-20T06:26:01;101150.41;;;16.72;38.86
69749;BME280;57019;52.354;6.584;2022-11-20T06:28:27;101158.53;;;16.69;38.89
69749;BME280;57019;52.354;6.584;2022-11-20T06:30:52;101159.66;;;16.67;38.90
69749;BME280;57019;52.354;6.584;2022-11-20T06:33:18;101164.72;;;16.68;38.90
69749;BME280;57019;52.354;6.584;2022-11-20T06:35:44;101153.59;;;16.66;38.73
69749;BME280;57019;52.354;6.584;2022-11-20T06:38:09;101158.16;;;16.64;38.78
69749;BME280;57019;52.354;6.584;2022-11-20T06:40:34;101168.91;;;16.61;38.85
69749;BME280;57019;52.354;6.584;2022-11-20T06:42:59;101156.16;;;16.58;38.96
69749;BME280;57019;52.354;6.584;2022-11-20T06:45:25;101164.34;;;16.63;38.83
69749;BME280;57019;52.354;6.584;2022-11-20T06:47:51;101165.91;;;16.74;38.62
69749;BME280;57019;52.354;6.584;2022-11-20T06:50:17;101168.81;;;16.89;38.43
69749;BME280;57019;52.354;6.584;2022-11-20T06:52:42;101168.78;;;17.07;38.16
69749;BME280;57019;52.354;6.584;2022-11-20T06:55:08;101169.69;;;17.24;37.89
69749;BME280;57019;52.354;6.584;2022-11-20T06:57:33;101172.38;;;17.40;37.73
69749;BME280;57019;52.354;6.584;2022-11-20T06:59:58;101173.75;;;17.53;37.35
69749;BME280;57019;52.354;6.584;2022-11-20T07:02:24;101168.28;;;17.64;37.09
69749;BME280;57019;52.354;6.584;2022-11-20T07:04:49;101164.69;;;17.73;36.89
69749;BME280;57019;52.354;6.584;2022-11-20T07:07:14;101155.94;;;17.83;36.68
69749;BME280;57019;52.354;6.584;2022-11-20T07:09:39;101152.03;;;17.87;36.47
69749;BME280;57019;52.354;6.584;2022-11-20T07:12:05;101164.31;;;17.94;36.24
69749;BME280;57019;52.354;6.584;2022-11-20T07:14:30;101168.09;;;18.00;36.44
69749;BME280;57019;52.354;6.584;2022-11-20T07:16:56;101166.78;;;18.04;36.12
69749;BME280;57019;52.354;6.584;2022-11-20T07:19:21;101158.31;;;18.10;36.09
69749;BME280;57019;52.354;6.584;2022-11-20T07:21:46;101165.84;;;18.13;35.99
69749;BME280;57019;52.354;6.584;2022-11-20T07:24:12;101167.97;;;18.18;36.05
69749;BME280;57019;52.354;6.584;2022-11-20T07:26:37;101164.53;;;18.18;35.86
69749;BME280;57019;52.354;6.584;2022-11-20T07:29:02;101174.34;;;18.24;36.01
69749;BME280;57019;52.354;6.584;2022-11-20T07:31:28;101170.75;;;18.25;36.14
69749;BME280;57019;52.354;6.584;2022-11-20T07:34:02;101169.13;;;18.32;35.89
69749;BME280;57019;52.354;6.584;2022-11-20T07:36:27;101162.59;;;18.36;35.80
69749;BME280;57019;52.354;6.584;2022-11-20T07:38:54;101160.66;;;18.38;35.81
69749;BME280;57019;52.354;6.584;2022-11-20T07:41:19;101157.53;;;18.43;35.49
69749;BME280;57019;52.354;6.584;2022-11-20T07:43:45;101159.03;;;18.45;35.56
69749;BME280;57019;52.354;6.584;2022-11-20T07:46:10;101155.28;;;18.48;35.64
69749;BME280;57019;52.354;6.584;2022-11-20T07:48:36;101160.00;;;18.53;35.71
69749;BME280;57019;52.354;6.584;2022-11-20T07:51:02;101158.19;;;18.53;35.60
69749;BME280;57019;52.354;6.584;2022-11-20T07:53:27;101150.22;;;18.55;35.38
69749;BME280;57019;52.354;6.584;2022-11-20T07:55:52;101158.34;;;18.60;35.62
69749;BME280;57019;52.354;6.584;2022-11-20T07:58:19;101143.50;;;18.60;35.52
69749;BME280;57019;52.354;6.584;2022-11-20T08:00:45;101149.53;;;18.61;35.43
69749;BME280;57019;52.354;6.584;2022-11-20T08:03:10;101147.91;;;18.68;35.14
69749;BME280;57019;52.354;6.584;2022-11-20T08:05:35;101151.50;;;18.67;35.23
69749;BME280;57019;52.354;6.584;2022-11-20T08:08:01;101142.84;;;18.67;35.42
69749;BME280;57019;52.354;6.584;2022-11-20T08:10:26;101148.22;;;18.73;35.15
69749;BME280;57019;52.354;6.584;2022-11-20T08:12:53;101142.34;;;18.71;35.10
69749;BME280;57019;52.354;6.584;2022-11-20T08:15:38;101136.13;;;18.72;35.28
69749;BME280;57019;52.354;6.584;2022-11-20T08:18:10;101146.28;;;18.75;35.11
69749;BME280;57019;52.354;6.584;2022-11-20T08:20:39;101141.03;;;18.75;35.40
69749;BME280;57019;52.354;6.584;2022-11-20T08:23:06;101139.06;;;18.77;34.98
69749;BME280;57019;52.354;6.584;2022-11-20T08:25:32;101140.03;;;18.76;35.22
69749;BME280;57019;52.354;6.584;2022-11-20T08:28:01;101142.34;;;18.79;35.20
69749;BME280;57019;52.354;6.584;2022-11-20T08:30:27;101135.13;;;18.81;34.92
69749;BME280;57019;52.354;6.584;2022-11-20T08:32:53;101134.16;;;18.82;35.11
69749;BME280;57019;52.354;6.584;2022-11-20T08:35:19;101132.84;;;18.87;34.89
69749;BME280;57019;52.354;6.584;2022-11-20T08:37:48;101131.38;;;18.84;35.10
69749;BME280;57019;52.354;6.584;2022-11-20T08:40:14;101129.75;;;18.83;35.14
69749;BME280;57019;52.354;6.584;2022-11-20T08:42:49;101123.38;;;18.77;35.21
69749;BME280;57019;52.354;6.584;2022-11-20T08:45:16;101119.78;;;18.70;35.44
69749;BME280;57019;52.354;6.584;2022-11-20T08:47:42;101126.00;;;18.69;35.14
69749;BME280;57019;52.354;6.584;2022-11-20T08:50:11;101124.69;;;18.65;35.54
69749;BME280;57019;52.354;6.584;2022-11-20T08:52:37;101117.81;;;18.64;35.98
69749;BME280;57019;52.354;6.584;2022-11-20T08:55:03;101109.31;;;18.70;35.80
69749;BME280;57019;52.354;6.584;2022-11-20T08:57:32;101109.31;;;18.70;35.99
69749;BME280;57019;52.354;6.584;2022-11-20T08:59:57;101115.34;;;18.79;36.12
69749;BME280;57019;52.354;6.584;2022-11-20T09:02:23;101109.78;;;18.90;36.22
69749;BME280;57019;52.354;6.584;2022-11-20T09:04:48;101106.84;;;19.02;36.06
69749;BME280;57019;52.354;6.584;2022-11-20T09:07:15;101101.91;;;19.07;36.26
69749;BME280;57019;52.354;6.584;2022-11-20T09:09:40;101101.91;;;19.07;36.13
69749;BME280;57019;52.354;6.584;2022-11-20T09:12:05;101090.97;;;19.03;36.55
69749;BME280;57019;52.354;6.584;2022-11-20T09:14:31;101084.44;;;18.99;36.63
69749;BME280;57019;52.354;6.584;2022-11-20T09:16:56;101092.47;;;18.97;36.80
69749;BME280;57019;52.354;6.584;2022-11-20T09:19:23;101092.66;;;18.88;37.11
69749;BME280;57019;52.354;6.584;2022-11-20T09:21:49;101091.47;;;18.82;37.25
69749;BME280;57019;52.354;6.584;2022-11-20T09:24:14;101085.59;;;18.80;37.26
69749;BME280;57019;52.354;6.584;2022-11-20T09:26:39;101098.69;;;18.80;37.36
69749;BME280;57019;52.354;6.584;2022-11-20T09:29:05;101083.97;;;18.79;37.55
69749;BME280;57019;52.354;6.584;2022-11-20T09:31:31;101088.03;;;18.81;37.50
69749;BME280;57019;52.354;6.584;2022-11-20T09:33:57;101082.81;;;18.90;37.54
69749;BME280;57019;52.354;6.584;2022-11-20T09:36:22;101078.72;;;18.95;37.51
69749;BME280;57019;52.354;6.584;2022-11-20T09:38:48;101089.00;;;19.05;37.33
69749;BME280;57019;52.354;6.584;2022-11-20T09:47:02;101083.44;;;19.08;37.58
69749;BME280;57019;52.354;6.584;2022-11-20T09:54:56;101068.59;;;18.92;38.04
69749;BME280;57019;52.354;6.584;2022-11-20T09:57:26;101066.50;;;18.88;38.10
69749;BME280;57019;52.354;6.584;2022-11-20T09:59:56;101074.34;;;18.88;38.12
69749;BME280;57019;52.354;6.584;2022-11-20T10:05:18;101065.97;;;18.84;38.55
69749;BME280;57019;52.354;6.584;2022-11-20T10:07:51;101063.53;;;18.91;38.21
69749;BME280;57019;52.354;6.584;2022-11-20T10:10:39;101067.44;;;18.95;38.41
69749;BME280;57019;52.354;6.584;2022-11-20T10:15:40;101062.50;;;19.08;38.08
69749;BME280;57019;52.354;6.584;2022-11-20T10:23:59;101049.72;;;19.13;38.42
69749;BME280;57019;52.354;6.584;2022-11-20T10:26:49;101030.09;;;19.09;38.51
69749;BME280;57019;52.354;6.584;2022-11-20T10:29:33;101033.41;;;19.03;38.38
69749;BME280;57019;52.354;6.584;2022-11-20T10:32:04;101035.72;;;18.98;38.69
69749;BME280;57019;52.354;6.584;2022-11-20T10:35:04;101034.75;;;18.91;38.73
69749;BME280;57019;52.354;6.584;2022-11-20T10:37:31;101045.56;;;18.88;38.76
69749;BME280;57019;52.354;6.584;2022-11-20T10:42:51;101025.28;;;18.90;38.79
69749;BME280;57019;52.354;6.584;2022-11-20T10:47:50;101012.47;;;19.03;38.82
69749;BME280;57019;52.354;6.584;2022-11-20T10:50:19;101015.41;;;19.08;38.48
69749;BME280;57019;52.354;6.584;2022-11-20T10:52:58;101025.16;;;19.14;38.55
69749;BME280;57019;52.354;6.584;2022-11-20T10:55:44;101030.06;;;19.18;38.53
69749;BME280;57019;52.354;6.584;2022-11-20T10:58:16;101028.59;;;19.15;38.80
69749;BME280;57019;52.354;6.584;2022-11-20T11:00:47;101019.31;;;19.12;38.72
69749;BME280;57019;52.354;6.584;2022-11-20T11:03:29;101014.09;;;19.04;38.95
69749;BME280;57019;52.354;6.584;2022-11-20T11:06:14;101012.81;;;19.00;39.11
69749;BME280;57019;52.354;6.584;2022-11-20T11:08:42;101016.06;;;19.02;39.07
69749;BME280;57019;52.354;6.584;2022-11-20T11:11:23;101011.78;;;19.09;39.27
69749;BME280;57019;52.354;6.584;2022-11-20T11:13:50;101014.03;;;19.21;39.01
69749;BME280;57019;52.354;6.584;2022-11-20T11:16:34;101006.13;;;19.29;38.95
69749;BME280;57019;52.354;6.584;2022-11-20T11:19:11;100996.25;;;19.39;38.97
69749;BME280;57019;52.354;6.584;2022-11-20T11:21:37;101000.28;;;19.50;38.89
69749;BME280;57019;52.354;6.584;2022-11-20T11:24:19;101001.38;;;19.56;38.81
69749;BME280;57019;52.354;6.584;2022-11-20T11:27:11;101001.38;;;19.56;39.09
69749;BME280;57019;52.354;6.584;2022-11-20T11:29:37;101000.81;;;19.45;39.27
69749;BME280;57019;52.354;6.584;2022-11-20T11:32:18;100994.63;;;19.38;39.28
69749;BME280;57019;52.354;6.584;2022-11-20T11:34:44;100986.81;;;19.30;39.78
69749;BME280;57019;52.354;6.584;2022-11-20T11:37:15;100986.84;;;19.22;39.89
69749;BME280;57019;52.354;6.584;2022-11-20T11:39:44;100982.13;;;19.17;39.96
69749;BME280;57019;52.354;6.584;2022-11-20T11:42:17;100963.50;;;19.12;40.06
69749;BME280;57019;52.354;6.584;2022-11-20T11:44:47;100948.34;;;19.07;39.94
69749;BME280;57019;52.354;6.584;2022-11-20T11:47:32;100946.06;;;19.04;40.11
69749;BME280;57019;52.354;6.584;2022-11-20T11:50:19;100947.97;;;19.10;39.85
69749;BME280;57019;52.354;6.584;2022-11-20T11:53:12;100950.72;;;19.17;39.82
69749;BME280;57019;52.354;6.584;2022-11-20T11:55:56;100953.31;;;19.25;39.75
69749;BME280;57019;52.354;6.584;2022-11-20T11:58:45;100942.13;;;19.31;39.39
69749;BME280;57019;52.354;6.584;2022-11-20T12:01:32;100939.00;;;19.36;39.40
69749;BME280;57019;52.354;6.584;2022-11-20T12:04:16;100940.63;;;19.37;39.45
69749;BME280;57019;52.354;6.584;2022-11-20T12:07:42;100943.88;;;19.39;39.60
69749;BME280;57019;52.354;6.584;2022-11-20T12:10:50;100934.13;;;19.33;39.55
69749;BME280;57019;52.354;6.584;2022-11-20T12:16:00;100924.31;;;19.27;39.59
69749;BME280;57019;52.354;6.584;2022-11-20T12:18:26;100927.94;;;19.26;39.87
69749;BME280;57019;52.354;6.584;2022-11-20T12:29:48;100923.16;;;19.53;40.40
69749;BME280;57019;52.354;6.584;2022-11-20T12:38:02;100905.25;;;19.41;40.46
69749;BME280;57019;52.354;6.584;2022-11-20T12:43:37;100887.97;;;19.32;40.98
69749;BME280;57019;52.354;6.584;2022-11-20T12:46:44;100890.47;;;19.25;40.76
69749;BME280;57019;52.354;6.584;2022-11-20T13:00:02;100854.38;;;19.36;41.29
69749;BME280;57019;52.354;6.584;2022-11-20T13:05:31;100848.09;;;19.45;41.02
69749;BME280;57019;52.354;6.584;2022-11-20T13:08:02;100837.81;;;19.43;41.02
69749;BME280;57019;52.354;6.584;2022-11-20T13:10:35;100832.75;;;19.42;41.14
69749;BME280;57019;52.354;6.584;2022-11-20T13:19:14;100823.56;;;19.23;41.42
69749;BME280;57019;52.354;6.584;2022-11-20T13:21:46;100807.75;;;19.16;41.66
69749;BME280;57019;52.354;6.584;2022-11-20T13:24:21;100807.56;;;19.18;41.66
69749;BME280;57019;52.354;6.584;2022-11-20T13:29:27;100807.41;;;19.19;41.89
69749;BME280;57019;52.354;6.584;2022-11-20T13:32:22;100804.56;;;19.29;41.78
69749;BME280;57019;52.354;6.584;2022-11-20T13:34:55;100791.47;;;19.29;41.83
69749;BME280;57019;52.354;6.584;2022-11-20T13:37:33;100796.63;;;19.37;41.42
69749;BME280;57019;52.354;6.584;2022-11-20T13:40:20;100797.53;;;19.44;41.41
69749;BME280;57019;52.354;6.584;2022-11-20T13:43:14;100788.22;;;19.42;41.53
69749;BME280;57019;52.354;6.584;2022-11-20T13:45:57;100790.38;;;19.38;41.66
69749;BME280;57019;52.354;6.584;2022-11-20T13:48:29;100788.13;;;19.35;41.87
69749;BME280;57019;52.354;6.584;2022-11-20T14:00:05;100771.13;;;19.16;42.41
69749;BME280;57019;52.354;6.584;2022-11-20T14:02:35;100759.47;;;19.19;42.35
69749;BME280;57019;52.354;6.584;2022-11-20T14:05:01;100757.16;;;19.24;42.63
69749;BME280;57019;52.354;6.584;2022-11-20T14:07:37;100760.13;;;19.36;42.40
69749;BME280;57019;52.354;6.584;2022-11-20T14:10:06;100756.72;;;19.50;42.17
69749;BME280;57019;52.354;6.584;2022-11-20T14:12:44;100753.66;;;19.61;42.18
69749;BME280;57019;52.354;6.584;2022-11-20T14:15:30;100743.94;;;19.70;41.83
69749;BME280;57019;52.354;6.584;2022-11-20T14:17:57;100744.53;;;19.72;42.18
69749;BME280;57019;52.354;6.584;2022-11-20T14:20:26;100745.53;;;19.71;42.18
69749;BME280;57019;52.354;6.584;2022-11-20T14:22:53;100736.31;;;19.60;42.12
69749;BME280;57019;52.354;6.584;2022-11-20T14:25:21;100737.84;;;19.55;42.27
69749;BME280;57019;52.354;6.584;2022-11-20T14:30:24;100734.69;;;19.44;42.69
69749;BME280;57019;52.354;6.584;2022-11-20T14:32:51;100741.66;;;19.37;42.97